Time;durP1;ratioP1;P1;durP2;ratioP2;P2;SDS_P1;SDS_P2;PMS_P1;PMS_P2;Temp;Humidity;BMP_temperature;BMP_pressure;BME280_temperature;BME280_humidity;BME280_pressure;Samples;Min_cycle;Max_cycle;Signal;HPM_P1;HPM_P2
2022/03/17 00:02:24;;;;;;;22.30;12.77;;;;;;;6.35;100.00;62653.66;5025860;28;20242;-72
2022/03/17 00:04:51;;;;;;;18.88;13.07;;;;;;;6.37;100.00;62655.72;5025444;28;20261;-70
2022/03/17 00:07:18;;;;;;;20.15;13.13;;;;;;;6.32;100.00;62650.56;5025657;28;20550;-71
2022/03/17 00:09:45;;;;;;;19.35;12.55;;;;;;;6.41;100.00;62659.84;5025456;28;20460;-71
2022/03/17 00:12:13;;;;;;;17.25;12.05;;;;;;;6.45;100.00;62658.91;5025384;28;20240;-71
2022/03/17 00:14:41;;;;;;;21.60;12.68;;;;;;;6.40;100.00;62654.25;5025119;28;20205;-72
2022/03/17 00:17:08;;;;;;;22.63;11.75;;;;;;;6.39;100.00;62652.72;5025173;28;20306;-72
2022/03/17 00:19:36;;;;;;;19.30;13.23;;;;;;;6.36;100.00;62649.63;5025507;28;20238;-71
2022/03/17 00:22:04;;;;;;;20.90;11.88;;;;;;;6.41;100.00;62654.78;5025364;28;20226;-70
2022/03/17 00:24:32;;;;;;;17.90;12.60;;;;;;;6.31;100.00;62647.53;5025069;28;20226;-72
2022/03/17 00:26:59;;;;;;;22.65;13.48;;;;;;;6.32;100.00;62648.03;5025684;28;20246;-71
2022/03/17 00:29:27;;;;;;;19.88;13.02;;;;;;;6.39;100.00;62655.78;5025112;28;20206;-71
2022/03/17 00:31:54;;;;;;;20.98;11.88;;;;;;;6.43;100.00;62659.38;5024969;28;20539;-73
2022/03/17 00:34:20;;;;;;;20.17;11.85;;;;;;;6.39;100.00;62658.28;5023660;28;20202;-71
2022/03/17 00:36:47;;;;;;;15.57;11.90;;;;;;;6.42;100.00;62658.34;5024770;28;20226;-71
2022/03/17 00:39:15;;;;;;;20.08;12.60;;;;;;;6.45;100.00;62659.44;5023652;28;20238;-71
2022/03/17 00:41:42;;;;;;;19.95;13.95;;;;;;;6.39;100.00;62655.25;5005426;28;20223;-71
2022/03/17 00:44:09;;;;;;;19.90;11.98;;;;;;;6.43;100.00;62659.38;5014394;28;20206;-71
2022/03/17 00:46:38;;;;;;;18.50;13.60;;;;;;;6.32;100.00;62648.03;5024262;28;20257;-71
2022/03/17 00:49:05;;;;;;;16.25;12.02;;;;;;;6.29;100.00;62640.41;5023891;28;20271;-72
2022/03/17 00:51:32;;;;;;;18.98;12.70;;;;;;;6.34;100.00;62648.09;5016420;28;20504;-72
2022/03/17 00:53:58;;;;;;;18.88;12.43;;;;;;;6.23;100.00;62648.88;5020754;28;20484;-71
2022/03/17 00:56:26;;;;;;;19.50;12.38;;;;;;;5.99;100.00;62614.53;5024875;28;20199;-71
2022/03/17 00:58:53;;;;;;;20.95;13.70;;;;;;;5.88;100.00;62606.22;5024047;28;20202;-71
2022/03/17 01:01:20;;;;;;;18.42;12.52;;;;;;;5.89;100.00;62606.75;5024491;28;20237;-70
2022/03/17 01:03:48;;;;;;;17.20;11.32;;;;;;;5.82;100.00;62594.47;5023954;28;20202;-71
2022/03/17 01:06:15;;;;;;;17.88;13.05;;;;;;;5.67;100.00;62581.53;5017985;28;20252;-69
2022/03/17 01:08:42;;;;;;;20.92;10.50;;;;;;;5.59;100.00;62575.84;5012565;28;20223;-71
2022/03/17 01:11:09;;;;;;;18.23;13.25;;;;;;;5.57;100.00;62574.28;5004809;28;20203;-72
2022/03/17 01:13:36;;;;;;;23.83;15.20;;;;;;;5.45;100.00;62561.41;5022736;28;20424;-71
2022/03/17 01:16:03;;;;;;;18.70;12.77;;;;;;;5.26;100.00;62539.31;5024129;28;20519;-72
2022/03/17 01:18:29;;;;;;;17.73;13.75;;;;;;;5.00;100.00;62515.56;5023962;28;20268;-72
2022/03/17 01:20:58;;;;;;;18.58;12.48;;;;;;;4.98;100.00;62515.50;5024036;28;20241;-71
2022/03/17 01:23:25;;;;;;;18.15;12.90;;;;;;;4.82;100.00;62496.50;5024238;28;20449;-71
2022/03/17 01:25:52;;;;;;;20.77;13.52;;;;;;;4.67;100.00;62481.59;5019781;28;20203;-71
2022/03/17 01:28:19;;;;;;;18.75;13.95;;;;;;;4.62;100.00;62473.94;5023693;28;20218;-71
2022/03/17 01:30:46;;;;;;;22.15;14.15;;;;;;;4.66;100.00;62480.56;5024248;28;20224;-70
2022/03/17 01:33:13;;;;;;;21.08;13.50;;;;;;;4.57;100.00;62471.81;5023828;28;20224;-71
2022/03/17 01:35:39;;;;;;;19.27;12.70;;;;;;;4.73;100.00;62485.25;5024331;28;20401;-70
2022/03/17 01:38:08;;;;;;;17.75;11.18;;;;;;;4.79;100.00;62488.91;5023985;28;20554;-70
2022/03/17 01:40:35;;;;;;;17.17;11.85;;;;;;;4.84;100.00;62499.09;5023693;28;20242;-71
2022/03/17 01:43:02;;;;;;;14.10;10.57;;;;;;;4.95;100.00;62504.84;5023189;28;20231;-70
2022/03/17 01:45:29;;;;;;;14.57;10.18;;;;;;;4.96;100.00;62510.94;5023178;28;20270;-70
2022/03/17 01:47:56;;;;;;;15.60;9.88;;;;;;;4.87;100.00;62497.13;5022818;28;20265;-71
2022/03/17 01:50:24;;;;;;;16.83;10.80;;;;;;;4.88;100.00;62497.66;5023941;28;20210;-70
2022/03/17 01:52:51;;;;;;;13.35;9.90;;;;;;;4.68;100.00;62482.63;5023679;28;20226;-69
2022/03/17 01:55:21;;;;;;;12.48;9.13;;;;;;;4.77;100.00;62488.84;5023248;28;20218;-71
2022/03/17 01:57:48;;;;;;;15.18;10.02;;;;;;;4.89;100.00;62503.72;5023713;28;20273;-71
2022/03/17 02:00:19;;;;;;;16.92;10.38;;;;;;;4.78;100.00;62492.91;5022746;28;20251;-72
2022/03/17 02:02:48;;;;;;;14.55;10.88;;;;;;;4.74;100.00;62486.78;5023184;28;20226;-71
2022/03/17 02:05:16;;;;;;;15.25;11.10;;;;;;;4.69;100.00;62481.13;5023646;28;20211;-72
2022/03/17 02:07:46;;;;;;;15.27;10.77;;;;;;;4.47;100.00;62459.00;5023469;28;20380;-70
2022/03/17 02:10:13;;;;;;;18.65;11.18;;;;;;;4.41;100.00;62454.81;5022982;28;20221;-71
2022/03/17 02:15:28;;;;;;;7.03;6.25;;;;;;;4.71;100.00;62483.19;5023790;28;20249;-71
2022/03/17 02:17:55;;;;;;;8.85;7.30;;;;;;;4.45;100.00;62454.41;5023242;28;20227;-71
2022/03/17 02:20:24;;;;;;;9.20;8.02;;;;;;;4.37;100.00;62451.22;5023626;28;20273;-70
2022/03/17 02:22:53;;;;;;;9.20;7.82;;;;;;;4.43;100.00;62454.88;5023472;28;20406;-70
2022/03/17 02:25:36;;;;;;;10.35;8.30;;;;;;;4.53;100.00;62462.13;5023008;28;20245;-71
2022/03/17 02:28:06;;;;;;;12.65;8.27;;;;;;;4.61;100.00;62470.88;5023156;28;20475;-70
2022/03/17 02:30:35;;;;;;;10.93;8.73;;;;;;;4.45;100.00;62454.41;5023335;28;20256;-70
2022/03/17 02:33:04;;;;;;;9.02;7.60;;;;;;;4.40;100.00;62451.78;5023063;28;20269;-71
2022/03/17 02:35:32;;;;;;;8.70;7.18;;;;;;;4.25;100.00;62438.88;5023798;28;20206;-70
2022/03/17 02:38:01;;;;;;;7.75;6.32;;;;;;;4.33;100.00;62444.09;5024856;28;20233;-70
2022/03/17 02:40:30;;;;;;;11.93;6.22;;;;;;;4.43;100.00;62454.88;5029011;28;20237;-72
2022/03/17 02:42:57;;;;;;;6.88;6.20;;;;;;;4.27;100.00;62437.91;5029066;28;20257;-71
2022/03/17 02:45:24;;;;;;;8.13;7.28;;;;;;;4.10;100.00;62420.41;5031781;28;20210;-70
2022/03/17 02:47:51;;;;;;;6.65;6.05;;;;;;;4.14;100.00;62425.03;5031671;28;20230;-70
2022/03/17 02:50:19;;;;;;;13.02;6.45;;;;;;;4.24;100.00;62437.84;5029439;28;20245;-71
2022/03/17 02:52:46;;;;;;;6.00;5.30;;;;;;;4.38;100.00;62446.69;5027178;28;20302;-71
2022/03/17 02:55:12;;;;;;;5.40;4.90;;;;;;;4.47;100.00;62458.47;5027531;28;20207;-71
2022/03/17 02:57:42;;;;;;;6.25;5.65;;;;;;;4.56;100.00;62470.25;5027562;28;20337;-70
2022/03/17 03:00:10;;;;;;;9.00;5.95;;;;;;;4.58;100.00;62472.84;5027408;28;20238;-72
2022/03/17 03:02:39;;;;;;;5.88;5.38;;;;;;;4.62;100.00;62476.94;5027399;28;20227;-71
2022/03/17 03:05:07;;;;;;;5.75;5.25;;;;;;;4.64;100.00;62473.47;5027059;28;20241;-71
2022/03/17 03:07:35;;;;;;;5.38;4.88;;;;;;;4.65;100.00;62477.00;5026775;28;20234;-71
2022/03/17 03:10:03;;;;;;;4.95;4.55;;;;;;;4.64;100.00;62479.00;5026744;28;20240;-71
2022/03/17 03:12:30;;;;;;;5.57;5.05;;;;;;;4.66;100.00;62480.56;5026308;28;20281;-72
2022/03/17 03:14:58;;;;;;;5.00;4.55;;;;;;;4.64;100.00;62476.50;5026626;28;20218;-72
2022/03/17 03:17:25;;;;;;;5.15;4.75;;;;;;;4.56;100.00;62470.25;5026751;28;20479;-71
2022/03/17 03:19:52;;;;;;;5.15;4.65;;;;;;;4.42;100.00;62456.38;5026817;28;20234;-71
2022/03/17 03:22:19;;;;;;;7.05;5.00;;;;;;;4.43;100.00;62457.41;5026215;28;20226;-71
2022/03/17 03:24:46;;;;;;;5.35;4.65;;;;;;;4.42;100.00;62451.31;5026585;28;20211;-71
2022/03/17 03:27:13;;;;;;;4.72;4.30;;;;;;;4.25;100.00;62433.31;5026539;28;20222;-71
2022/03/17 03:29:40;;;;;;;5.93;4.35;;;;;;;4.22;100.00;62430.22;5026441;28;20210;-71
2022/03/17 03:32:09;;;;;;;5.20;4.70;;;;;;;4.20;100.00;62433.22;5025914;28;20236;-70
2022/03/17 03:34:36;;;;;;;9.63;5.70;;;;;;;4.23;100.00;62433.78;5026126;28;20261;-70
2022/03/17 03:39:48;;;;;;;6.20;5.30;;;;;;;4.24;100.00;62437.34;5026284;28;20265;-72
2022/03/17 03:42:15;;;;;;;5.07;4.63;;;;;;;4.27;100.00;62440.94;5026059;28;20286;-71
2022/03/17 03:44:42;;;;;;;5.68;5.05;;;;;;;4.21;100.00;62437.28;5026177;28;20206;-71
2022/03/17 03:47:11;;;;;;;5.97;5.40;;;;;;;4.08;100.00;62423.91;5026401;28;20281;-71
2022/03/17 03:49:40;;;;;;;6.03;5.40;;;;;;;4.13;100.00;62426.53;5025806;28;20237;-71
2022/03/17 03:52:08;;;;;;;6.18;5.22;;;;;;;4.09;100.00;62422.41;5025987;28;20434;-71
2022/03/17 03:54:35;;;;;;;6.65;6.00;;;;;;;3.99;100.00;62409.09;5026166;28;20233;-71
2022/03/17 03:57:02;;;;;;;10.80;6.55;;;;;;;3.96;100.00;62408.53;5026149;28;20367;-71
2022/03/17 03:59:30;;;;;;;8.90;6.68;;;;;;;3.89;100.00;62403.84;5026125;28;20241;-71
2022/03/17 04:01:58;;;;;;;7.25;6.43;;;;;;;3.86;100.00;62393.72;5025945;28;20262;-71
2022/03/17 04:04:28;;;;;;;9.48;6.72;;;;;;;3.84;100.00;62396.19;5025983;28;20431;-71
2022/03/17 04:06:58;;;;;;;11.38;7.65;;;;;;;3.89;100.00;62403.84;5025623;28;20222;-71
2022/03/17 04:09:26;;;;;;;9.90;7.75;;;;;;;3.93;100.00;62405.44;5025656;28;20230;-72
2022/03/17 04:11:54;;;;;;;11.82;8.07;;;;;;;3.95;100.00;62405.47;5025742;28;20234;-71
2022/03/17 04:14:21;;;;;;;10.40;8.07;;;;;;;3.96;100.00;62406.00;5025933;28;20497;-70
2022/03/17 04:16:48;;;;;;;9.98;7.45;;;;;;;4.02;100.00;62417.22;5025394;28;20258;-70
2022/03/17 04:19:16;;;;;;;12.13;8.07;;;;;;;4.10;100.00;62415.38;5025293;28;20210;-71
2022/03/17 04:21:45;;;;;;;13.38;8.27;;;;;;;4.03;100.00;62418.75;5025062;28;20296;-71
2022/03/17 04:24:12;;;;;;;12.45;8.52;;;;;;;4.09;100.00;62419.38;5025054;28;20210;-70
2022/03/17 04:26:39;;;;;;;12.90;9.05;;;;;;;3.92;100.00;62399.88;5025458;28;20404;-72
2022/03/17 04:29:06;;;;;;;11.70;9.23;;;;;;;3.45;100.00;62357.09;5025316;28;20509;-70
2022/03/17 04:31:34;;;;;;;11.45;8.43;;;;;;;3.11;100.00;62322.16;5025365;28;20206;-70
2022/03/17 04:34:01;;;;;;;14.63;9.57;;;;;;;3.00;100.00;62313.34;5025062;28;20216;-70
2022/03/17 04:36:28;;;;;;;16.73;10.45;;;;;;;2.86;100.00;62288.91;5024431;28;20488;-71
2022/03/17 04:38:56;;;;;;;14.45;9.48;;;;;;;2.85;100.00;62295.41;5025046;28;20245;-70
2022/03/17 04:41:23;;;;;;;16.85;10.68;;;;;;;2.90;100.00;62300.06;5024585;28;20277;-72
2022/03/17 04:43:50;;;;;;;15.57;10.77;;;;;;;3.00;100.00;62307.81;5025017;28;20277;-72
2022/03/17 04:46:17;;;;;;;16.50;10.38;;;;;;;3.14;100.00;62327.75;5025769;28;20214;-70
2022/03/17 04:48:44;;;;;;;14.73;10.60;;;;;;;3.21;100.00;62331.91;5026609;28;20226;-70
2022/03/17 04:51:11;;;;;;;15.73;10.20;;;;;;;3.31;100.00;62342.69;5024898;28;20282;-71
2022/03/17 04:53:38;;;;;;;14.98;9.82;;;;;;;3.42;100.00;62350.97;5024396;28;20451;-72
2022/03/17 04:56:08;;;;;;;16.40;10.23;;;;;;;3.45;100.00;62357.09;5025278;28;20233;-71
2022/03/17 04:58:37;;;;;;;13.18;9.48;;;;;;;3.46;100.00;62360.13;5024412;28;20227;-72
2022/03/17 05:01:05;;;;;;;14.65;10.05;;;;;;;3.50;100.00;62359.72;5024498;28;20234;-72
2022/03/17 05:03:32;;;;;;;12.50;9.35;;;;;;;3.57;100.00;62363.38;5023971;28;20456;-72
2022/03/17 05:06:00;;;;;;;13.50;9.65;;;;;;;3.53;100.00;62365.34;5024304;28;20511;-70
2022/03/17 05:08:27;;;;;;;14.50;10.88;;;;;;;3.25;100.00;62336.03;5024595;28;20294;-73
2022/03/17 05:10:54;;;;;;;15.77;10.43;;;;;;;3.22;100.00;62327.91;5024174;28;20225;-72
2022/03/17 05:13:23;;;;;;;15.07;10.73;;;;;;;3.02;100.00;62310.38;5023889;28;20405;-71
2022/03/17 05:15:52;;;;;;;14.82;9.88;;;;;;;2.80;100.00;62287.25;5024669;28;20237;-71
2022/03/17 05:18:19;;;;;;;11.52;9.48;;;;;;;2.61;100.00;62270.75;5024098;28;20543;-70
2022/03/17 05:20:47;;;;;;;11.50;8.68;;;;;;;2.67;100.00;62279.44;5024625;28;20309;-71
2022/03/17 05:23:16;;;;;;;12.30;8.25;;;;;;;2.48;100.00;62254.38;5023808;28;20233;-71
2022/03/17 05:25:44;;;;;;;17.67;9.18;;;;;;;2.44;100.00;62247.75;5024453;28;20416;-70
2022/03/17 05:28:12;;;;;;;14.60;8.85;;;;;;;2.53;100.00;62264.53;5010922;28;20261;-71
2022/03/17 05:30:42;;;;;;;13.98;9.95;;;;;;;2.45;100.00;62253.81;5023506;28;20202;-71
2022/03/17 05:33:10;;;;;;;14.82;9.32;;;;;;;2.56;100.00;62263.13;5023853;28;20443;-71
2022/03/17 05:35:38;;;;;;;11.15;8.73;;;;;;;2.57;100.00;62261.13;5024259;28;20206;-71
2022/03/17 05:38:05;;;;;;;15.38;9.73;;;;;;;2.68;100.00;62275.44;5024085;28;20223;-70
2022/03/17 05:40:32;;;;;;;14.20;9.45;;;;;;;2.75;100.00;62284.63;5024062;28;20214;-71
2022/03/17 05:43:01;;;;;;;11.93;8.13;;;;;;;2.64;100.00;62273.84;5024156;28;20230;-71
2022/03/17 05:45:30;;;;;;;13.20;7.95;;;;;;;2.54;100.00;62260.56;5023786;28;20213;-71
2022/03/17 05:48:00;;;;;;;13.98;9.20;;;;;;;2.63;100.00;62272.81;5023287;28;20227;-71
2022/03/17 05:50:29;;;;;;;13.35;9.43;;;;;;;2.63;100.00;62272.81;5024073;28;20210;-70
2022/03/17 05:52:57;;;;;;;10.32;8.30;;;;;;;2.70;100.00;62282.53;5023467;28;20547;-69
2022/03/17 05:55:25;;;;;;;12.38;9.10;;;;;;;2.75;100.00;62282.13;5023910;28;20207;-70
2022/03/17 05:57:54;;;;;;;11.23;8.18;;;;;;;2.87;100.00;62297.47;5023726;28;20264;-69
2022/03/17 06:00:24;;;;;;;11.70;8.38;;;;;;;2.89;100.00;62299.00;5012207;28;20590;-69
2022/03/17 06:02:51;;;;;;;12.02;9.27;;;;;;;2.85;100.00;62292.91;5024320;28;20492;-69
2022/03/17 06:05:20;;;;;;;11.07;8.60;;;;;;;2.89;100.00;62299.53;5019190;28;20227;-69
2022/03/17 06:07:49;;;;;;;9.90;7.60;;;;;;;2.96;100.00;62303.69;5014064;28;20249;-70
2022/03/17 06:10:17;;;;;;;10.20;7.72;;;;;;;2.99;100.00;62309.81;5022644;28;20206;-70
2022/03/17 06:12:45;;;;;;;9.90;7.20;;;;;;;3.03;100.00;62311.41;5004269;28;20254;-69
2022/03/17 06:15:13;;;;;;;10.45;8.20;;;;;;;3.03;100.00;62308.38;5008143;28;20268;-69
2022/03/17 06:17:41;;;;;;;13.55;8.65;;;;;;;2.87;100.00;62292.44;5023563;28;20277;-70
2022/03/17 06:20:10;;;;;;;12.95;9.13;;;;;;;2.91;100.00;62299.09;5022657;28;20203;-69
2022/03/17 06:22:41;;;;;;;11.75;8.77;;;;;;;2.95;100.00;62303.19;5017170;28;20238;-70
2022/03/17 06:25:09;;;;;;;13.98;8.43;;;;;;;2.92;100.00;62302.09;5017893;28;20203;-70
2022/03/17 06:27:36;;;;;;;12.40;8.75;;;;;;;2.96;100.00;62301.69;5021411;28;20218;-69
2022/03/17 06:30:04;;;;;;;9.18;7.57;;;;;;;3.03;100.00;62315.91;5023321;28;20209;-71
2022/03/17 06:32:31;;;;;;;9.35;7.35;;;;;;;3.10;100.00;62318.63;5010549;28;20267;-70
2022/03/17 06:34:58;;;;;;;13.73;8.73;;;;;;;3.17;100.00;62330.31;5011835;28;20237;-70
2022/03/17 06:37:26;;;;;;;11.73;8.02;;;;;;;3.16;100.00;62326.75;5017421;28;20230;-68
2022/03/17 06:39:54;;;;;;;9.18;7.57;;;;;;;3.19;100.00;62322.31;5015430;28;20207;-70
2022/03/17 06:42:22;;;;;;;9.95;8.40;;;;;;;3.05;100.00;62310.44;5004071;28;20245;-70
2022/03/17 06:44:54;;;;;;;9.82;8.50;;;;;;;2.62;100.00;62269.28;5022416;28;20202;-72
2022/03/17 06:47:21;;;;;;;10.05;6.88;;;;;;;2.47;100.00;62256.38;5017624;28;20230;-71
2022/03/17 06:49:48;;;;;;;11.90;8.77;;;;;;;2.66;100.00;62270.38;5013817;28;20215;-70
2022/03/17 06:52:14;;;;;;;9.88;7.93;;;;;;;2.75;100.00;62282.13;5003492;28;20258;-70
2022/03/17 06:54:41;;;;;;;11.23;7.97;;;;;;;2.88;100.00;62292.97;5009774;28;20203;-70
2022/03/17 06:57:09;;;;;;;9.90;7.70;;;;;;;2.91;100.00;62298.56;5022023;28;20223;-69
2022/03/17 06:59:36;;;;;;;9.55;7.53;;;;;;;3.04;100.00;62314.44;5023210;28;20373;-72
2022/03/17 07:02:03;;;;;;;14.25;7.70;;;;;;;3.13;100.00;62318.66;5021546;28;20541;-71
2022/03/17 07:04:30;;;;;;;9.05;7.13;;;;;;;3.23;100.00;62333.97;5020505;28;20415;-70
2022/03/17 07:06:57;;;;;;;7.60;6.45;;;;;;;3.03;100.00;62308.38;5022937;28;20222;-69
2022/03/17 07:09:23;;;;;;;9.60;7.78;;;;;;;3.13;100.00;62321.16;5010840;28;20206;-71
2022/03/17 07:11:50;;;;;;;13.10;7.20;;;;;;;2.62;100.00;62268.75;5013022;28;20296;-70
2022/03/17 07:14:18;;;;;;;8.60;7.75;;;;;;;2.63;100.00;62267.78;5014737;28;20232;-71
2022/03/17 07:16:45;;;;;;;12.85;7.88;;;;;;;2.49;100.00;62257.91;5019044;28;20226;-69
2022/03/17 07:19:12;;;;;;;11.18;8.55;;;;;;;2.55;100.00;62264.59;5022207;28;20241;-70
2022/03/17 07:21:39;;;;;;;15.38;9.25;;;;;;;2.72;100.00;62277.03;5017724;28;20547;-70
2022/03/17 07:24:08;;;;;;;13.90;9.85;;;;;;;2.90;100.00;62295.03;5022663;28;20195;-70
2022/03/17 07:26:34;;;;;;;12.93;8.48;;;;;;;2.73;100.00;62290.63;5025237;28;20207;-71
2022/03/17 07:29:02;;;;;;;11.95;8.40;;;;;;;2.67;100.00;62279.44;5021819;28;20208;-70
2022/03/17 07:31:30;;;;;;;13.05;8.77;;;;;;;2.52;100.00;62259.00;5024301;28;20218;-70
2022/03/17 07:33:59;;;;;;;11.68;8.85;;;;;;;2.48;100.00;62254.91;5026385;28;20203;-68
2022/03/17 07:36:27;;;;;;;14.73;9.90;;;;;;;2.29;100.00;62237.91;5026339;28;20252;-70
2022/03/17 07:38:54;;;;;;;13.55;10.40;;;;;;;2.20;100.00;62226.13;5023549;28;20423;-70
2022/03/17 07:41:22;;;;;;;14.65;9.70;;;;;;;2.17;100.00;62225.56;5019421;28;20484;-70
2022/03/17 07:43:49;;;;;;;17.58;10.93;;;;;;;2.22;100.00;62226.19;5011134;28;20206;-72
2022/03/17 07:46:16;;;;;;;13.43;10.73;;;;;;;2.45;100.00;62253.81;5021038;28;20221;-71
2022/03/17 07:48:44;;;;;;;16.52;11.48;;;;;;;2.80;100.00;62290.28;5022593;28;20223;-71
2022/03/17 07:51:11;;;;;;;15.23;10.45;;;;;;;3.05;100.00;62307.94;5005802;28;20458;-70
2022/03/17 07:53:39;;;;;;;13.05;10.25;;;;;;;3.31;100.00;62340.19;5006136;28;20262;-69
2022/03/17 07:56:07;;;;;;;15.55;11.50;;;;;;;3.50;100.00;62362.22;5006800;28;20264;-70
2022/03/17 07:58:34;;;;;;;13.20;10.23;;;;;;;3.69;100.00;62380.75;5006378;28;20254;-70
2022/03/17 08:01:02;;;;;;;14.32;10.98;;;;;;;3.84;100.00;62396.69;5008252;28;20202;-71
2022/03/17 08:03:29;;;;;;;12.57;10.30;;;;;;;3.91;100.00;62401.38;5020884;28;20226;-70
2022/03/17 08:05:57;;;;;;;14.32;9.60;;;;;;;3.94;100.00;62403.94;5014797;28;20203;-70
2022/03/17 08:08:24;;;;;;;11.60;9.98;;;;;;;3.39;100.00;62347.91;5046181;28;20249;-70
2022/03/17 08:10:51;;;;;;;12.18;9.48;;;;;;;3.41;100.00;62347.97;5023262;28;20207;-72
2022/03/17 08:13:18;;;;;;;12.85;9.40;;;;;;;3.32;100.00;62341.22;5007730;28;20298;-72
2022/03/17 08:15:45;;;;;;;13.77;10.95;;;;;;;3.16;100.00;62322.25;5006039;28;20338;-71
2022/03/17 08:18:12;;;;;;;12.02;10.25;;;;;;;3.06;100.00;62316.50;5017632;28;20237;-72
2022/03/17 08:20:39;;;;;;;13.98;10.52;;;;;;;3.11;100.00;62317.13;5025519;28;20245;-70
2022/03/17 08:23:08;;;;;;;12.80;10.95;;;;;;;3.26;100.00;62332.03;5025951;28;20234;-71
2022/03/17 08:25:37;;;;;;;13.63;10.48;;;;;;;3.50;100.00;62359.22;5025794;28;20198;-70
2022/03/17 08:28:04;;;;;;;13.73;11.13;;;;;;;3.68;100.00;62372.16;5025534;28;20356;-71
2022/03/17 08:30:32;;;;;;;13.48;11.23;;;;;;;3.73;100.00;62387.91;5024925;28;20237;-71
2022/03/17 08:33:00;;;;;;;13.57;10.82;;;;;;;3.95;100.00;62407.50;5025206;28;20265;-71
2022/03/17 08:35:27;;;;;;;20.55;12.55;;;;;;;3.83;100.00;62395.16;5025071;28;20195;-71
2022/03/17 08:37:57;;;;;;;17.52;11.35;;;;;;;4.21;100.00;62432.22;5023945;28;20293;-70
2022/03/17 08:40:25;;;;;;;14.98;10.98;;;;;;;4.16;100.00;62427.09;5025119;28;20380;-71
2022/03/17 08:42:52;;;;;;;11.10;9.07;;;;;;;4.06;100.00;62418.81;5025214;28;20234;-70
2022/03/17 08:50:48;;;;;;;8.63;7.70;;;;;;;4.21;100.00;62434.25;5024707;28;20317;-71
2022/03/17 08:53:15;;;;;;;9.23;8.30;;;;;;;4.47;100.00;62463.50;5024389;28;20272;-71
2022/03/17 08:55:44;;;;;;;11.13;8.65;;;;;;;4.36;100.00;62450.22;5024595;28;20511;-70
2022/03/17 08:58:12;;;;;;;8.40;7.57;;;;;;;4.64;100.00;62479.00;5024919;28;20218;-71
2022/03/17 09:00:40;;;;;;;8.15;7.40;;;;;;;4.90;100.00;62502.25;5024841;28;20233;-71
2022/03/17 09:03:08;;;;;;;14.10;8.85;;;;;;;4.96;100.00;62511.44;5024206;28;20244;-72
2022/03/17 09:05:35;;;;;;;8.10;7.18;;;;;;;4.59;100.00;62468.81;5024691;28;20245;-71
2022/03/17 09:08:03;;;;;;;11.48;8.02;;;;;;;4.99;100.00;62514.03;5024389;28;20218;-71
2022/03/17 09:10:29;;;;;;;11.20;7.22;;;;;;;5.29;100.00;62545.44;5024259;28;20221;-71
2022/03/17 09:13:05;;;;;;;8.25;7.45;;;;;;;5.55;100.00;62569.69;5024257;28;20261;-70
2022/03/17 09:15:32;;;;;;;8.80;7.57;;;;;;;5.51;100.00;62567.56;5024905;28;20198;-71
2022/03/17 09:17:59;;;;;;;10.32;7.57;;;;;;;5.85;100.00;62602.63;5024518;28;20219;-70
2022/03/17 09:20:26;;;;;;;8.63;7.30;;;;;;;6.00;100.00;62617.56;5024714;28;20206;-70
2022/03/17 09:22:55;;;;;;;7.80;7.03;;;;;;;5.30;100.00;62543.94;5024627;28;20234;-71
2022/03/17 09:25:23;;;;;;;7.97;6.72;;;;;;;4.94;100.00;62504.34;5026657;28;20268;-71
2022/03/17 09:27:50;;;;;;;11.13;7.80;;;;;;;5.25;100.00;62543.84;5026485;28;20241;-70
2022/03/17 09:30:19;;;;;;;8.18;7.13;;;;;;;5.11;100.00;62526.38;5025997;28;20205;-71
2022/03/17 09:32:46;;;;;;;10.40;8.32;;;;;;;5.50;100.00;62564.56;5024620;28;20234;-71
2022/03/17 09:35:13;;;;;;;13.93;9.38;;;;;;;5.72;100.00;62589.75;5008687;28;20246;-70
2022/03/17 09:37:40;;;;;;;9.02;8.18;;;;;;;5.90;100.00;62602.75;5007603;28;20242;-70
2022/03/17 09:40:10;;;;;;;9.07;5.53;;;;;;;5.95;100.00;62609.91;5013393;28;20199;-72
2022/03/17 09:42:38;;;;;;;5.82;5.40;;;;;;;5.49;100.00;62566.03;5009277;28;20230;-72
2022/03/17 09:45:07;;;;;;;8.88;6.25;;;;;;;5.54;100.00;62573.22;5005553;28;20207;-71
2022/03/17 09:47:37;;;;;;;6.28;5.72;;;;;;;5.60;100.00;62574.31;5003758;28;20705;-70
2022/03/17 09:50:06;;;;;;;6.68;5.85;;;;;;;5.68;100.00;62578.03;5009305;28;20199;-71
2022/03/17 09:52:32;;;;;;;8.40;7.25;;;;;;;5.82;100.00;62600.06;5004592;28;20528;-70
2022/03/17 09:55:00;;;;;;;9.57;6.93;;;;;;;5.63;100.00;62585.00;5011690;28;20205;-71
2022/03/17 09:57:26;;;;;;;7.60;6.80;;;;;;;5.36;100.00;62549.59;5023037;28;20302;-71
2022/03/17 09:59:56;;;;;;;7.50;6.70;;;;;;;5.46;100.00;62562.94;5019135;28;20556;-70
2022/03/17 10:02:23;;;;;;;7.95;6.53;;;;;;;5.18;100.00;62536.09;5023657;28;20515;-73
2022/03/17 10:04:52;;;;;;;7.78;6.68;;;;;;;4.96;100.00;62508.41;5023455;28;20210;-72
2022/03/17 10:07:21;;;;;;;6.32;5.43;;;;;;;4.73;100.00;62488.28;5019736;28;20218;-71
2022/03/17 10:09:49;;;;;;;6.53;5.40;;;;;;;4.66;100.00;62483.06;5024131;28;20210;-71
2022/03/17 10:12:20;;;;;;;5.90;5.30;;;;;;;4.40;100.00;62449.25;5023423;28;20230;-71
2022/03/17 10:14:48;;;;;;;6.32;4.75;;;;;;;4.26;100.00;62434.34;5023162;28;20209;-72
2022/03/17 10:17:35;;;;;;;8.70;5.45;;;;;;;4.09;100.00;62421.91;5021456;28;20226;-71
2022/03/17 10:20:17;;;;;;;6.72;5.60;;;;;;;3.92;100.00;62404.41;5012409;28;20202;-71
2022/03/17 10:22:46;;;;;;;6.30;5.75;;;;;;;3.67;100.00;62373.66;5012984;28;20233;-72
2022/03/17 10:25:15;;;;;;;6.70;5.22;;;;;;;3.47;100.00;62358.63;5018909;28;20218;-72
2022/03/17 10:27:45;;;;;;;5.75;5.22;;;;;;;3.53;100.00;62364.81;5022777;28;20235;-72
2022/03/17 10:30:13;;;;;;;8.45;7.57;;;;;;;3.58;100.00;62366.91;5023234;28;20202;-71
2022/03/17 10:32:40;;;;;;;9.40;8.02;;;;;;;3.83;100.00;62398.19;5023317;28;20233;-72
2022/03/17 10:35:08;;;;;;;10.57;8.13;;;;;;;3.64;100.00;62370.59;5022981;28;20202;-72
2022/03/17 10:37:37;;;;;;;11.23;9.55;;;;;;;3.69;100.00;62383.28;5012172;28;20614;-70
2022/03/17 10:40:11;;;;;;;11.45;9.30;;;;;;;3.76;100.00;62387.97;5008767;28;20507;-71
2022/03/17 10:42:39;;;;;;;11.77;9.45;;;;;;;3.71;100.00;62380.31;5003739;28;20277;-73
2022/03/17 10:45:08;;;;;;;12.45;9.55;;;;;;;3.87;100.00;62399.78;5003523;28;20239;-71
2022/03/17 10:47:37;;;;;;;14.98;10.75;;;;;;;3.92;100.00;62401.91;5011216;28;20233;-71
2022/03/17 10:50:09;;;;;;;12.38;9.38;;;;;;;4.19;100.00;62432.72;5021247;28;20451;-70
2022/03/17 10:52:52;;;;;;;14.57;10.45;;;;;;;4.30;100.00;62440.97;5018413;28;20222;-71
2022/03/17 10:55:21;;;;;;;11.02;8.40;;;;;;;4.39;100.00;62450.25;5023016;28;20202;-70
2022/03/17 10:57:49;;;;;;;15.60;10.70;;;;;;;4.06;100.00;62416.28;5015603;28;20215;-70
2022/03/17 11:00:21;;;;;;;11.43;9.20;;;;;;;4.00;100.00;62415.69;5008947;28;20238;-71
2022/03/17 11:02:49;;;;;;;15.80;10.38;;;;;;;3.91;100.00;62403.38;5025297;28;20246;-71
2022/03/17 11:05:17;;;;;;;13.30;10.27;;;;;;;3.80;100.00;62389.53;5027948;28;20214;-71
2022/03/17 11:07:45;;;;;;;11.00;9.60;;;;;;;4.11;100.00;62424.47;5025322;28;20218;-71
2022/03/17 11:10:18;;;;;;;7.93;7.18;;;;;;;4.51;100.00;62463.13;5008560;28;20222;-72
2022/03/17 11:12:45;;;;;;;10.35;8.20;;;;;;;4.67;100.00;62479.59;5008129;28;20219;-72
2022/03/17 11:15:13;;;;;;;11.40;7.68;;;;;;;4.80;100.00;62489.91;5017645;28;20246;-72
2022/03/17 11:17:48;;;;;;;11.02;7.93;;;;;;;4.93;100.00;62515.41;5026422;28;20238;-72
2022/03/17 11:20:24;;;;;;;10.05;7.45;;;;;;;4.94;100.00;62509.38;5027473;28;20198;-71
2022/03/17 11:23:05;;;;;;;8.38;7.55;;;;;;;4.89;100.00;62504.25;5027647;28;20284;-71
2022/03/17 11:25:35;;;;;;;8.82;7.22;;;;;;;4.64;100.00;62479.00;5011187;28;20199;-72
2022/03/17 11:28:04;;;;;;;9.25;7.60;;;;;;;4.55;100.00;62469.75;5026500;28;20222;-71
2022/03/17 11:30:32;;;;;;;12.13;7.63;;;;;;;4.43;100.00;62454.88;5026299;28;20241;-73
2022/03/17 11:33:02;;;;;;;10.02;7.38;;;;;;;4.48;100.00;62459.50;5024608;28;20224;-71
2022/03/17 11:35:32;;;;;;;8.82;6.47;;;;;;;4.57;100.00;62471.31;5017717;28;20382;-71
2022/03/17 11:38:15;;;;;;;7.43;6.63;;;;;;;4.56;100.00;62468.25;5006329;28;20287;-72
2022/03/17 11:41:07;;;;;;;8.00;6.47;;;;;;;4.61;100.00;62475.41;5009972;28;20202;-71